Del Rio, Texas
Current Conditions -  °F | °C
As of 6:53 PM on Wednesday 22 Oct 2014 (Local Time) from KDRT Reporting Station
Light Rain Light Rain  
Wind Chill: 65°   Ceiling: 12000
Heat Index: 65°   Visibility: 4mi
Dew Point: 62°   Wind: 0mph
Humidity: 90%   Direction: NA
Pressure: 30.07"   Gusts: NA
Location:  29.37°N, 100.89°W
Report Text: KDRT 222353Z AUTO 00000KT 4SM -RA BR BKN120 18/17 A3007 RMK AO2 SLP170 P0002 60013 T01830167 10222 20183 50004
Loading
Personal Weather Stations






























Interactive Weather Map
Tropical Storm Tracking
New forecast layout! Learn more

10-Day Weather Forecast

Advertisements
Track Severe Weather on mobile